createdAt,value
2022-11-05T00:02:37.120Z,97443.16
2022-11-05T00:05:21.488Z,97432.31
2022-11-05T00:08:09.795Z,97433.66
2022-11-05T00:10:39.738Z,97428.78
2022-11-05T00:13:27.245Z,97438.25
2022-11-05T00:16:12.942Z,97438.44
2022-11-05T00:18:40.367Z,97441.03
2022-11-05T00:21:28.104Z,97442.94
2022-11-05T00:24:13.010Z,97446.56
2022-11-05T00:26:41.763Z,97455.22
2022-11-05T00:29:09.184Z,97468.75
2022-11-05T00:31:36.603Z,97468.84
2022-11-05T00:34:04.024Z,97463.50
2022-11-05T00:36:31.459Z,97468.66
2022-11-05T00:38:58.874Z,97478.22
2022-11-05T00:41:26.297Z,97475.72
2022-11-05T00:44:20.879Z,97474.50
2022-11-05T00:46:48.322Z,97476.59
2022-11-05T00:49:30.070Z,97478.41
2022-11-05T00:52:17.914Z,97481.97
2022-11-05T00:54:45.327Z,97486.75
2022-11-05T00:57:12.742Z,97481.22
2022-11-05T00:59:41.511Z,97488.59
2022-11-05T01:02:09.022Z,97490.69
2022-11-05T01:04:36.558Z,97486.94
2022-11-05T01:07:04.021Z,97481.44
2022-11-05T01:09:31.439Z,97483.66
2022-11-05T01:11:58.852Z,97483.28
2022-11-05T01:14:26.272Z,97484.94
2022-11-05T01:16:55.398Z,97483.34
2022-11-05T01:19:22.820Z,97489.53
2022-11-05T01:21:50.239Z,97483.44
2022-11-05T01:24:17.650Z,97490.13
2022-11-05T01:26:45.074Z,97492.56
2022-11-05T01:29:12.578Z,97503.13
2022-11-05T01:31:40.025Z,97512.22
2022-11-05T01:34:08.779Z,97516.06
2022-11-05T01:36:36.180Z,97520.03
2022-11-05T01:39:03.725Z,97522.66
2022-11-05T01:41:31.156Z,97526.31
2022-11-05T01:44:00.256Z,97536.97
2022-11-05T01:46:34.919Z,97528.94
2022-11-05T01:49:13.158Z,97531.47
2022-11-05T01:51:41.990Z,97529.31
2022-11-05T01:54:13.948Z,97536.53
2022-11-05T01:56:46.211Z,97540.75
2022-11-05T01:59:17.142Z,97539.63
2022-11-05T02:01:45.028Z,97538.25
2022-11-05T02:04:19.119Z,97538.91
2022-11-05T02:06:47.490Z,97534.53
2022-11-05T02:09:21.566Z,97542.31
2022-11-05T02:11:50.646Z,97539.72
2022-11-05T02:14:18.210Z,97539.13
2022-11-05T02:16:52.818Z,97546.94
2022-11-05T02:19:48.243Z,97542.13
2022-11-05T02:22:44.775Z,97541.56
2022-11-05T02:25:35.080Z,97545.66
2022-11-05T02:28:22.028Z,97551.56
2022-11-05T02:30:56.378Z,97555.06
2022-11-05T02:33:36.133Z,97551.13
2022-11-05T02:36:18.043Z,97554.78
2022-11-05T02:38:54.079Z,97554.47
2022-11-05T02:41:29.503Z,97565.91
2022-11-05T02:44:10.694Z,97567.78
2022-11-05T02:46:48.026Z,97578.72
2022-11-05T02:49:27.348Z,97589.84
2022-11-05T02:51:58.769Z,97575.44
2022-11-05T02:54:33.908Z,97575.34
2022-11-05T02:57:02.853Z,97576.75
2022-11-05T02:59:30.295Z,97577.88
2022-11-05T03:02:01.355Z,97568.19
2022-11-05T03:04:32.062Z,97577.44
2022-11-05T03:07:27.482Z,97579.13
2022-11-05T03:10:15.123Z,97571.09
2022-11-05T03:12:52.910Z,97573.69
2022-11-05T03:15:36.094Z,97571.75
2022-11-05T03:18:11.504Z,97578.94
2022-11-05T03:20:47.874Z,97578.59
2022-11-05T03:23:25.942Z,97582.41
2022-11-05T03:26:00.055Z,97586.94
2022-11-05T03:28:31.065Z,97593.94
2022-11-05T03:30:59.221Z,97587.13
2022-11-05T03:33:31.856Z,97586.69
2022-11-05T03:36:02.946Z,97594.59
2022-11-05T03:38:34.990Z,97585.91
2022-11-05T03:41:06.140Z,97583.97
2022-11-05T03:43:37.545Z,97591.81
2022-11-05T03:46:10.196Z,97595.09
2022-11-05T03:48:42.363Z,97591.50
2022-11-05T03:51:17.460Z,97596.63
2022-11-05T03:53:49.055Z,97598.34
2022-11-05T03:56:21.524Z,97598.41
2022-11-05T03:58:52.290Z,97598.22
2022-11-05T04:01:22.337Z,97605.28
2022-11-05T04:03:51.210Z,97605.41
2022-11-05T04:06:36.345Z,97611.03
2022-11-05T04:09:21.796Z,97606.38
2022-11-05T04:12:06.674Z,97603.56
2022-11-05T04:14:34.131Z,97599.03
2022-11-05T04:17:06.378Z,97598.72
2022-11-05T04:19:53.623Z,97603.00
2022-11-05T04:22:38.798Z,97608.72
2022-11-05T04:25:06.466Z,97606.75
2022-11-05T04:27:33.877Z,97616.00
2022-11-05T04:30:18.390Z,97613.78
2022-11-05T04:33:05.022Z,97614.72
2022-11-05T04:35:36.023Z,97610.31
2022-11-05T04:38:04.917Z,97610.88
2022-11-05T04:40:32.352Z,97623.06
2022-11-05T04:42:59.827Z,97627.75
2022-11-05T04:45:29.295Z,97630.13
2022-11-05T04:47:56.848Z,97631.19
2022-11-05T04:50:24.827Z,97631.03
2022-11-05T04:52:53.622Z,97635.88
2022-11-05T04:55:21.125Z,97638.44
2022-11-05T04:57:50.143Z,97649.44
2022-11-05T05:00:18.807Z,97650.16
2022-11-05T05:02:46.475Z,97659.00
2022-11-05T05:05:14.623Z,97654.19
2022-11-05T05:07:42.740Z,97675.81
2022-11-05T05:10:12.238Z,97664.03
2022-11-05T05:12:39.810Z,97670.31
2022-11-05T05:15:08.343Z,97662.50
2022-11-05T05:17:35.775Z,97664.41
2022-11-05T05:20:20.691Z,97674.16
2022-11-05T05:22:53.070Z,97682.66
2022-11-05T05:25:22.202Z,97684.22
2022-11-05T05:27:49.661Z,97691.69
2022-11-05T05:30:17.443Z,97700.34
2022-11-05T05:32:45.846Z,97701.09
2022-11-05T05:35:13.348Z,97706.28
2022-11-05T05:37:40.814Z,97705.06
2022-11-05T05:40:09.923Z,97716.22
2022-11-05T05:42:42.892Z,97712.06
2022-11-05T05:45:12.050Z,97715.38
2022-11-05T05:47:39.525Z,97717.88
2022-11-05T05:50:07.362Z,97723.28
2022-11-05T05:52:34.806Z,97718.09
2022-11-05T05:55:02.488Z,97724.25
2022-11-05T05:57:29.916Z,97731.53
2022-11-05T05:59:58.693Z,97737.13
2022-11-05T06:02:26.273Z,97738.84
2022-11-05T06:04:53.880Z,97728.31
2022-11-05T06:07:21.335Z,97734.31
2022-11-05T06:09:48.759Z,97727.75
2022-11-05T06:12:16.184Z,97737.00
2022-11-05T06:14:43.623Z,97740.13
2022-11-05T06:17:12.608Z,97732.94
2022-11-05T06:19:40.031Z,97742.41
2022-11-05T06:22:07.485Z,97747.09
2022-11-05T06:24:36.151Z,97749.44
2022-11-05T06:27:03.471Z,97754.34
2022-11-05T06:29:30.889Z,97761.72
2022-11-05T06:31:58.370Z,97766.66
2022-11-05T06:34:27.176Z,97767.31
2022-11-05T06:36:54.625Z,97776.19
2022-11-05T06:39:22.047Z,97775.16
2022-11-05T06:42:18.059Z,97785.06
2022-11-05T06:44:36.892Z,97778.22
2022-11-05T06:47:04.445Z,97786.44
2022-11-05T06:49:33.260Z,97792.25
2022-11-05T06:52:00.723Z,97793.25
2022-11-05T06:54:28.166Z,97801.13
2022-11-05T06:56:55.834Z,97796.31
2022-11-05T06:59:23.291Z,97805.88
2022-11-05T07:01:50.867Z,97805.06
2022-11-05T07:04:18.355Z,97805.06
2022-11-05T07:06:47.159Z,97807.16
2022-11-05T07:09:14.827Z,97813.56
2022-11-05T07:11:42.246Z,97814.56
2022-11-05T07:14:09.718Z,97818.69
2022-11-05T07:16:37.180Z,97823.88
2022-11-05T07:19:04.995Z,97828.00
2022-11-05T07:21:32.406Z,97819.16
2022-11-05T07:24:01.318Z,97834.50
2022-11-05T07:26:34.269Z,97833.75
2022-11-05T07:29:02.144Z,97847.97
2022-11-05T07:31:29.604Z,97849.34
2022-11-05T07:33:57.047Z,97859.72
2022-11-05T07:36:24.489Z,97856.84
2022-11-05T07:38:54.928Z,97857.28
2022-11-05T07:41:27.884Z,97856.06
2022-11-05T07:43:55.308Z,97866.78
2022-11-05T07:46:22.762Z,97871.72
2022-11-05T07:48:50.195Z,97873.44
2022-11-05T07:51:17.664Z,97870.78
2022-11-05T07:53:45.732Z,97874.28
2022-11-05T07:56:13.257Z,97886.41
2022-11-05T07:58:42.052Z,97878.19
2022-11-05T08:01:09.632Z,97874.28
2022-11-05T08:03:37.272Z,97883.75
2022-11-05T08:06:05.115Z,97875.56
2022-11-05T08:08:32.962Z,97881.84
2022-11-05T08:11:04.229Z,97885.72
2022-11-05T08:13:31.704Z,97883.19
2022-11-05T08:16:01.867Z,97885.00
2022-11-05T08:18:32.114Z,97881.50
2022-11-05T08:21:00.700Z,97883.09
2022-11-05T08:23:29.147Z,97888.03
2022-11-05T08:25:57.746Z,97897.38
2022-11-05T08:28:26.748Z,97898.75
2022-11-05T08:30:56.471Z,97902.41
2022-11-05T08:33:27.368Z,97900.28
2022-11-05T08:35:54.807Z,97904.38
2022-11-05T08:38:22.278Z,97910.44
2022-11-05T08:40:55.946Z,97911.09
2022-11-05T08:43:23.843Z,97913.28
2022-11-05T08:45:51.379Z,97914.97
2022-11-05T08:48:19.709Z,97916.63
2022-11-05T08:50:49.993Z,97926.38
2022-11-05T08:53:18.027Z,97917.06
2022-11-05T08:55:47.470Z,97922.66
2022-11-05T08:58:16.890Z,97926.41
2022-11-05T09:00:45.453Z,97928.91
2022-11-05T09:03:13.927Z,97936.94
2022-11-05T09:05:43.004Z,97937.22
2022-11-05T09:08:12.815Z,97934.56
2022-11-05T09:10:41.356Z,97938.47
2022-11-05T09:13:14.763Z,97934.03
2022-11-05T09:15:45.835Z,97935.84
2022-11-05T09:18:14.683Z,97939.75
2022-11-05T09:20:42.935Z,97932.28
2022-11-05T09:23:14.089Z,97934.88
2022-11-05T09:25:41.779Z,97932.72
2022-11-05T09:28:14.679Z,97936.13
2022-11-05T09:30:44.905Z,97933.16
2022-11-05T09:33:12.977Z,97937.13
2022-11-05T09:35:41.260Z,97937.03
2022-11-05T09:38:09.246Z,97940.47
2022-11-05T09:40:42.729Z,97953.09
2022-11-05T09:43:16.417Z,97935.06
2022-11-05T09:45:44.825Z,97946.00
2022-11-05T09:48:16.760Z,97948.94
2022-11-05T09:50:46.434Z,97946.38
2022-11-05T09:53:17.221Z,97953.19
2022-11-05T09:55:48.960Z,97953.50
2022-11-05T09:58:25.932Z,97956.34
2022-11-05T10:00:56.446Z,97957.16
2022-11-05T10:03:25.636Z,97959.28
2022-11-05T10:05:55.374Z,97961.03
2022-11-05T10:08:26.887Z,97961.97
2022-11-05T10:11:00.027Z,97968.13
2022-11-05T10:13:34.429Z,97972.56
2022-11-05T10:16:05.184Z,97972.03
2022-11-05T10:18:35.556Z,97972.13
2022-11-05T10:21:03.513Z,97972.09
2022-11-05T10:23:31.075Z,97972.31
2022-11-05T10:26:04.575Z,97981.16
2022-11-05T10:28:34.647Z,97979.78
2022-11-05T10:31:05.047Z,97981.91
2022-11-05T10:33:35.757Z,97981.34
2022-11-05T10:36:08.435Z,97984.84
2022-11-05T10:38:36.214Z,97987.91
2022-11-05T10:41:22.370Z,97990.66
2022-11-05T10:43:51.604Z,97986.03
2022-11-05T10:46:33.326Z,97995.38
2022-11-05T10:49:18.762Z,97997.50
2022-11-05T10:51:47.411Z,97994.56
2022-11-05T10:54:19.329Z,97996.38
2022-11-05T10:56:48.783Z,97999.34
2022-11-05T10:59:24.481Z,98005.59
2022-11-05T11:02:01.758Z,97993.97
2022-11-05T11:04:37.524Z,98004.03
2022-11-05T11:07:06.059Z,97991.94
2022-11-05T11:09:37.117Z,97998.28
2022-11-05T11:12:14.940Z,97997.00
2022-11-05T11:14:42.436Z,97997.53
2022-11-05T11:17:27.614Z,97998.25
2022-11-05T11:20:21.922Z,98000.63
2022-11-05T11:23:04.601Z,97999.13
2022-11-05T11:25:40.679Z,98004.25
2022-11-05T11:28:18.611Z,98001.25
2022-11-05T11:30:50.720Z,97999.91
2022-11-05T11:33:23.335Z,98002.94
2022-11-05T11:35:50.795Z,98001.53
2022-11-05T11:38:18.696Z,98006.63
2022-11-05T11:40:46.647Z,98000.53
2022-11-05T11:43:30.107Z,98007.84
2022-11-05T11:46:04.872Z,98007.84
2022-11-05T11:48:37.229Z,98012.09
2022-11-05T11:51:18.019Z,98006.38
2022-11-05T11:53:47.786Z,98008.13
2022-11-05T11:56:18.226Z,98011.25
2022-11-05T11:58:49.534Z,98021.97
2022-11-05T12:01:40.731Z,98020.50
2022-11-05T12:04:22.372Z,98017.44
2022-11-05T12:07:01.954Z,98018.56
2022-11-05T12:09:43.828Z,98019.66
2022-11-05T12:12:13.960Z,98017.44
2022-11-05T12:14:51.608Z,98013.09
2022-11-05T12:17:34.229Z,98016.53
2022-11-05T12:20:19.105Z,98006.28
2022-11-05T12:23:08.354Z,98016.16
2022-11-05T12:25:44.742Z,98012.19
2022-11-05T12:28:26.448Z,98009.88
2022-11-05T12:31:01.774Z,98009.72
2022-11-05T12:33:45.959Z,98015.25
2022-11-05T12:36:23.522Z,98014.13
2022-11-05T12:39:19.119Z,98014.47
2022-11-05T12:41:54.442Z,98005.00
2022-11-05T12:44:34.292Z,98005.25
2022-11-05T12:47:16.807Z,98006.63
2022-11-05T12:49:57.519Z,98008.84
2022-11-05T12:52:37.569Z,98017.81
2022-11-05T12:55:08.985Z,98019.66
2022-11-05T12:57:40.785Z,98020.78
2022-11-05T13:00:16.328Z,98020.22
2022-11-05T13:02:52.058Z,98018.34
2022-11-05T13:05:24.797Z,98022.16
2022-11-05T13:07:58.792Z,98022.91
2022-11-05T13:10:30.610Z,98025.03
2022-11-05T13:13:06.090Z,98025.41
2022-11-05T13:15:38.438Z,98035.38
2022-11-05T13:18:13.076Z,98036.03
2022-11-05T13:20:46.022Z,98034.53
2022-11-05T13:23:18.464Z,98040.34
2022-11-05T13:25:50.910Z,98031.41
2022-11-05T13:28:28.094Z,98037.59
2022-11-05T13:31:01.306Z,98030.09
2022-11-05T13:33:34.298Z,98033.13
2022-11-05T13:36:24.084Z,98036.56
2022-11-05T13:39:06.933Z,98034.19
2022-11-05T13:41:49.206Z,98039.72
2022-11-05T13:44:44.973Z,98037.66
2022-11-05T13:47:33.598Z,98035.19
2022-11-05T13:50:25.547Z,98037.88
2022-11-05T13:53:07.085Z,98037.41
2022-11-05T13:55:52.451Z,98034.97
2022-11-05T13:58:50.810Z,98043.31
2022-11-05T14:01:30.678Z,98037.13
2022-11-05T14:03:58.628Z,98037.97
2022-11-05T14:06:31.667Z,98039.97
2022-11-05T14:09:02.379Z,98043.41
2022-11-05T14:11:32.659Z,98037.06
2022-11-05T14:14:06.267Z,98053.72
2022-11-05T14:16:49.658Z,98043.41
2022-11-05T14:19:34.117Z,98048.69
2022-11-05T14:22:29.643Z,98047.47
2022-11-05T14:24:57.314Z,98040.28
2022-11-05T14:27:44.580Z,98048.41
2022-11-05T14:30:44.750Z,98050.34
2022-11-05T14:33:31.903Z,98049.16
2022-11-05T14:36:30.328Z,98057.09
2022-11-05T14:39:14.287Z,98055.50
2022-11-05T14:42:12.732Z,98059.03
2022-11-05T14:45:07.039Z,98060.78
2022-11-05T14:47:38.629Z,98068.06
2022-11-05T14:50:11.429Z,98068.25
2022-11-05T14:52:40.803Z,98064.66
2022-11-05T14:55:27.644Z,98079.41
2022-11-05T14:58:20.965Z,98070.13
2022-11-05T15:00:49.642Z,98077.06
2022-11-05T15:03:47.128Z,98076.75
2022-11-05T15:06:24.780Z,98078.97
2022-11-05T15:09:12.235Z,98077.56
2022-11-05T15:11:46.582Z,98079.97
2022-11-05T15:14:23.835Z,98072.47
2022-11-05T15:16:53.745Z,98085.53
2022-11-05T15:19:25.310Z,98074.97
2022-11-05T15:21:55.193Z,98078.56
2022-11-05T15:24:23.380Z,98081.63
2022-11-05T15:27:00.526Z,98085.91
2022-11-05T15:29:30.493Z,98085.41
2022-11-05T15:31:59.456Z,98092.06
2022-11-05T15:34:30.756Z,98092.03
2022-11-05T15:37:00.420Z,98099.44
2022-11-05T15:39:34.709Z,98097.28
2022-11-05T15:42:06.808Z,98099.53
2022-11-05T15:44:39.044Z,98103.97
2022-11-05T15:47:15.732Z,98104.34
2022-11-05T15:49:45.680Z,98107.41
2022-11-05T15:52:18.268Z,98106.69
2022-11-05T15:54:46.492Z,98107.50
2022-11-05T15:57:29.927Z,98116.34
2022-11-05T15:59:57.384Z,98109.47
2022-11-05T16:02:31.971Z,98108.84
2022-11-05T16:05:00.835Z,98113.06
2022-11-05T16:07:29.460Z,98111.50
2022-11-05T16:09:57.997Z,98108.25
2022-11-05T16:12:32.899Z,98109.00
2022-11-05T16:15:05.324Z,98114.81
2022-11-05T16:17:45.408Z,98111.88
2022-11-05T16:20:22.670Z,98111.69
2022-11-05T16:22:51.817Z,98114.66
2022-11-05T16:25:24.882Z,98113.97
2022-11-05T16:27:53.675Z,98122.78
2022-11-05T16:30:21.851Z,98128.13
2022-11-05T16:32:49.734Z,98126.00
2022-11-05T16:35:20.535Z,98130.28
2022-11-05T16:37:52.000Z,98130.34
2022-11-05T16:40:22.574Z,98132.13
2022-11-05T16:42:51.442Z,98135.53
2022-11-05T16:45:22.251Z,98142.53
2022-11-05T16:47:50.215Z,98145.50
2022-11-05T16:50:21.389Z,98146.97
2022-11-05T16:52:49.063Z,98153.63
2022-11-05T16:55:17.444Z,98159.28
2022-11-05T16:57:47.441Z,98164.66
2022-11-05T17:00:17.731Z,98168.78
2022-11-05T17:02:46.663Z,98177.66
2022-11-05T17:05:19.831Z,98179.53
2022-11-05T17:07:47.645Z,98177.09
2022-11-05T17:10:15.093Z,98176.47
2022-11-05T17:12:42.930Z,98176.69
2022-11-05T17:15:22.943Z,98184.00
2022-11-05T17:17:52.501Z,98186.09
2022-11-05T17:20:39.902Z,98184.00
2022-11-05T17:23:10.100Z,98186.84
2022-11-05T17:25:38.069Z,98192.06
2022-11-05T17:28:06.316Z,98186.56
2022-11-05T17:30:33.824Z,98179.00
2022-11-05T17:33:02.900Z,98183.56
2022-11-05T17:35:30.431Z,98176.81
2022-11-05T17:37:57.894Z,98183.94
2022-11-05T17:40:25.974Z,98182.38
2022-11-05T17:42:54.007Z,98188.09
2022-11-05T17:45:21.459Z,98198.19
2022-11-05T17:47:48.893Z,98200.41
2022-11-05T17:50:17.971Z,98200.84
2022-11-05T17:52:45.419Z,98188.41
2022-11-05T17:55:19.626Z,98198.09
2022-11-05T17:57:49.082Z,98194.50
2022-11-05T18:00:18.620Z,98207.25
2022-11-05T18:02:48.348Z,98198.34
2022-11-05T18:05:17.681Z,98201.22
2022-11-05T18:07:45.705Z,98199.53
2022-11-05T18:10:14.665Z,98202.00
2022-11-05T18:12:42.797Z,98208.50
2022-11-05T18:15:10.991Z,98205.97
2022-11-05T18:17:38.891Z,98209.47
2022-11-05T18:20:11.683Z,98211.63
2022-11-05T18:22:43.846Z,98216.34
2022-11-05T18:25:12.847Z,98218.75
2022-11-05T18:27:40.978Z,98221.97
2022-11-05T18:30:15.231Z,98221.22
2022-11-05T18:32:42.776Z,98212.28
2022-11-05T18:35:10.954Z,98207.81
2022-11-05T18:37:39.400Z,98203.06
2022-11-05T18:40:09.359Z,98211.44
2022-11-05T18:42:37.162Z,98208.50
2022-11-05T18:45:06.076Z,98209.25
2022-11-05T18:47:33.843Z,98212.34
2022-11-05T18:50:01.635Z,98209.25
2022-11-05T18:52:31.452Z,98205.28
2022-11-05T18:54:59.373Z,98201.84
2022-11-05T18:57:28.648Z,98210.66
2022-11-05T18:59:56.196Z,98213.19
2022-11-05T19:02:23.810Z,98220.38
2022-11-05T19:05:22.176Z,98222.97
2022-11-05T19:07:39.666Z,98224.13
2022-11-05T19:10:08.469Z,98227.16
2022-11-05T19:12:37.237Z,98226.19
2022-11-05T19:15:05.227Z,98221.59
2022-11-05T19:17:33.624Z,98227.38
2022-11-05T19:20:01.228Z,98228.22
2022-11-05T19:22:28.692Z,98225.47
2022-11-05T19:24:56.244Z,98226.16
2022-11-05T19:27:24.007Z,98224.06
2022-11-05T19:29:53.345Z,98225.69
2022-11-05T19:32:21.113Z,98222.59
2022-11-05T19:34:48.643Z,98210.63
2022-11-05T19:37:16.210Z,98219.19
2022-11-05T19:39:43.787Z,98224.94
2022-11-05T19:42:11.248Z,98225.06
2022-11-05T19:44:38.755Z,98220.47
2022-11-05T19:47:07.546Z,98232.09
2022-11-05T19:49:34.970Z,98231.03
2022-11-05T19:52:02.473Z,98228.91
2022-11-05T19:54:29.940Z,98238.06
2022-11-05T19:56:57.428Z,98238.81
2022-11-05T19:59:25.147Z,98233.44
2022-11-05T20:01:52.644Z,98241.75
2022-11-05T20:04:21.576Z,98242.69
2022-11-05T20:06:49.378Z,98250.16
2022-11-05T20:09:22.629Z,98252.19
2022-11-05T20:11:51.378Z,98258.56
2022-11-05T20:14:18.810Z,98261.59
2022-11-05T20:16:47.616Z,98271.47
2022-11-05T20:19:17.417Z,98272.13
2022-11-05T20:21:46.245Z,98270.06
2022-11-05T20:24:20.575Z,98271.41
2022-11-05T20:26:51.980Z,98275.53
2022-11-05T20:29:19.420Z,98266.28
2022-11-05T20:31:47.317Z,98264.16
2022-11-05T20:34:14.839Z,98270.31
2022-11-05T20:36:42.272Z,98268.13
2022-11-05T20:39:12.062Z,98264.88
2022-11-05T20:41:39.747Z,98262.25
2022-11-05T20:44:07.253Z,98256.00
2022-11-05T20:46:34.877Z,98255.56
2022-11-05T20:49:02.327Z,98261.81
2022-11-05T20:51:29.935Z,98269.34
2022-11-05T20:53:58.648Z,98271.66
2022-11-05T20:56:29.347Z,98279.06
2022-11-05T20:58:58.472Z,98279.97
2022-11-05T21:01:27.387Z,98279.25
2022-11-05T21:03:55.072Z,98279.13
2022-11-05T21:06:22.784Z,98286.72
2022-11-05T21:08:51.434Z,98290.03
2022-11-05T21:11:19.003Z,98282.47
2022-11-05T21:13:48.537Z,98291.91
2022-11-05T21:16:18.770Z,98280.66
2022-11-05T21:18:46.596Z,98288.28
2022-11-05T21:21:15.752Z,98287.66
2022-11-05T21:23:43.329Z,98290.22
2022-11-05T21:26:13.358Z,98283.44
2022-11-05T21:28:42.163Z,98287.56
2022-11-05T21:31:11.402Z,98289.72
2022-11-05T21:33:38.965Z,98300.09
2022-11-05T21:36:08.262Z,98290.91
2022-11-05T21:38:35.808Z,98287.53
2022-11-05T21:41:03.963Z,98284.69
2022-11-05T21:43:31.468Z,98284.50
2022-11-05T21:46:01.786Z,98285.19
2022-11-05T21:48:31.187Z,98283.00
2022-11-05T21:51:16.640Z,98281.44
2022-11-05T21:54:12.804Z,98274.06
2022-11-05T21:56:57.834Z,98278.13
2022-11-05T21:59:43.551Z,98271.31
2022-11-05T22:02:13.215Z,98286.59
2022-11-05T22:04:44.292Z,98278.72
2022-11-05T22:07:13.603Z,98280.56
2022-11-05T22:09:41.149Z,98271.72
2022-11-05T22:12:09.176Z,98265.03
2022-11-05T22:14:37.222Z,98276.28
2022-11-05T22:17:05.233Z,98272.66
2022-11-05T22:19:33.338Z,98281.19
2022-11-05T22:22:02.603Z,98284.66
2022-11-05T22:24:31.714Z,98277.13
2022-11-05T22:26:59.942Z,98278.44
2022-11-05T22:29:27.973Z,98279.97
2022-11-05T22:31:56.740Z,98280.84
2022-11-05T22:34:24.654Z,98270.47
2022-11-05T22:36:52.119Z,98282.56
2022-11-05T22:39:23.980Z,98280.72
2022-11-05T22:41:54.460Z,98282.06
2022-11-05T22:44:22.157Z,98268.97
2022-11-05T22:46:49.629Z,98276.88
2022-11-05T22:49:17.099Z,98282.38
2022-11-05T22:51:44.922Z,98272.03
2022-11-05T22:54:12.642Z,98265.38
2022-11-05T22:56:43.452Z,98269.53
2022-11-05T22:59:13.311Z,98271.22
2022-11-05T23:01:41.033Z,98268.19
2022-11-05T23:04:08.691Z,98275.06
2022-11-05T23:06:53.890Z,98267.06
2022-11-05T23:09:41.438Z,98264.53
2022-11-05T23:12:20.794Z,98259.97
2022-11-05T23:14:48.248Z,98254.63
2022-11-05T23:17:33.376Z,98259.28
2022-11-05T23:20:18.735Z,98258.63
2022-11-05T23:23:03.994Z,98260.97
2022-11-05T23:25:31.513Z,98259.28
2022-11-05T23:28:00.374Z,98256.81
2022-11-05T23:30:29.300Z,98259.31
2022-11-05T23:32:55.988Z,98255.97
2022-11-05T23:35:37.376Z,98255.16
2022-11-05T23:38:22.354Z,98257.97
2022-11-05T23:41:09.854Z,98263.81
2022-11-05T23:43:56.491Z,98252.81
2022-11-05T23:46:41.786Z,98257.69
2022-11-05T23:49:09.378Z,98262.84
2022-11-05T23:51:36.878Z,98254.19
2022-11-05T23:54:04.520Z,98257.84
2022-11-05T23:56:32.461Z,98253.19
2022-11-05T23:59:01.378Z,98257.34
